Wainscott, New York
Current Conditions -  °F | °C
As of 7:53 PM on Saturday 22 Nov 2014 (Local Time) from KFOK Reporting Station
Overcast Overcast  
Wind Chill: 37°   Ceiling: 5000
Heat Index: 45°   Visibility: 10mi
Dew Point: 27°   Wind: 21mph
Humidity: 49%   Direction: 250°WSW
Pressure: 30.23"   Gusts: NA
Location:  40.94°N, 72.24°W
Report Text: KFOK 230053Z AUTO 25018KT 10SM BKN050 OVC070 07/M03 A3023 RMK AO2 SLP236 T00721028 TSNO
Loading
Personal Weather Stations






























Interactive Weather Map New forecast layout! Learn more

10-Day Weather Forecast

Advertisements
Track Severe Weather on mobile